Station: Cowra  

  Atmospheric Gas Attenuation - ITU Rec 676-11   ----------------- dB/100km -----------------
Date Time Temp RH % AH g/m3 Dew Point Wind Direction Speed kph Gust kph Barometer mB Rainfall Since 9am 24GHz 47GHz 76GHz 122GHz 134GHz 241GHz
08/05 12:30 12.1 74 7.94 7.6 13 17 1023 0 18.2 25.7 38.4 100.6 92.5 317.6
08/05 12:20 11.8 74 7.79 7.3 13 17 1023.1 0 17.9 25.5 38.0 99.4 90.9 311.8
08/05 12:10 12.6 75 8.3 8.3 11 13 1023.2 0 19.0 26.1 39.6 103.8 96.7 332.4
08/05 12:00 12.3 75 8.14 8 15 20 1023.3 0 18.7 26.0 39.1 102.5 95.0 326.2
08/05 11:50 12.4 73 7.98 7.7 17 19 1023.4 0 18.3 25.7 38.4 100.7 92.7 318.3
08/05 11:40 12.3 76 8.25 8.2 11 13 1023.4 0 18.9 26.1 39.6 103.7 96.5 331.4
08/05 11:30 11.9 74 7.84 7.4 19 24 1023.6 0 18.0 25.6 38.1 99.8 91.5 313.9
08/05 11:20 12 75 7.99 7.7 19 24 1023.7 0 18.4 25.8 38.7 101.3 93.4 320.5
08/05 11:10 11.7 75 7.85 7.4 22 24 1023.8 0 18.1 25.7 38.3 100.2 91.9 315.2
08/05 11:00 11.4 74 7.6 6.9 20 28 1024.1 0 17.6 25.4 37.4 97.9 88.9 304.8
08/05 10:50 11.4 76 7.8 7.3 20 26 1024.2 0 18.0 25.7 38.2 100.1 91.6 314.2
08/05 10:40 11.4 76 7.8 7.3 19 24 1024.2 0 18.0 25.7 38.2 100.1 91.6 314.2
08/05 10:30 11.6 76 7.9 7.5 13 20 1024.1 0 18.2 25.8 38.5 100.9 92.7 318.0
08/05 10:20 11.6 77 8 7.7 13 17 1024.1 0 18.4 26.0 38.9 102.0 94.0 322.7
08/05 10:10 11.4 81 8.32 8.3 15 19 1024.1 0 19.1 26.6 40.4 105.8 98.6 338.7
08/05 10:00 10.9 76 7.56 6.8 22 30 1024.3 0 17.5 25.5 37.5 98.1 89.0 305.0
08/05 09:50 10.8 78 7.71 7.1 24 28 1024.2 0 17.8 25.7 38.2 99.9 91.1 312.3
08/05 09:40 10.7 79 7.76 7.2 24 30 1024.2 0 17.9 25.8 38.4 100.5 91.9 315.1
08/05 09:30 9.9 82 7.66 7 20 30 1024.4 0 17.7 25.9 38.4 100.5 91.5 313.6
08/05 09:20 10.1 81 7.66 7 15 19 1024.5 0 17.7 25.9 38.3 100.2 91.3 312.9
08/05 09:10 9.8 80 7.42 6.5 15 17 1024.5 0 17.2 25.5 37.5 98.0 88.4 302.7
08/05 09:00 9.5 79 7.19 6 22 30 1024.4 0 16.8 25.3 36.7 95.9 85.6 293.0
08/05 08:50 9.6 79 7.24 6.1 17 22 1024.3 0 16.9 25.3 36.8 96.3 86.2 294.9
08/05 08:40 9.5 79 7.19 6 13 15 1024.2 0 16.8 25.2 36.7 95.8 85.6 292.9
08/05 08:30 8.9 80 7.01 5.6 0 9 1024.1 0 16.4 25.1 36.2 94.6 83.8 286.7
08/05 08:20 8.7 79 6.83 5.3 2 6 1024.1 0 16.0 24.9 35.6 92.9 81.6 279.0
08/05 08:10 7.7 84 6.81 5.2 0 0 1024 0 16.0 25.1 35.9 93.9 82.4 281.6
08/05 08:00 7.1 86 6.71 4.9 6 9 1024 0 15.8 25.1 35.8 93.5 81.7 279.0
08/05 07:50 6.6 86 6.5 4.4 9 9 1023.9 0 15.4 24.9 35.1 91.7 79.4 270.7
08/05 07:40 6.4 87 6.49 4.4 6 7 1023.9 0 15.4 25.0 35.2 91.9 79.4 270.9
08/05 07:30 6 87 6.32 4 9 11 1023.8 0 15.0 24.8 34.7 90.5 77.5 264.2
08/05 07:20 5.6 89 6.3 3.9 9 11 1023.6 0 15.0 24.8 34.7 90.7 77.7 264.5
08/05 07:10 5.6 89 6.3 3.9 7 7 1023.5 0 15.0 24.8 34.7 90.7 77.6 264.5
08/05 07:00 5.5 87 6.11 3.5 7 9 1023.5 0 14.6 24.6 34.0 88.7 75.2 255.8
08/05 06:50 5.7 86 6.12 3.5 7 7 1023.6 0 14.6 24.5 34.0 88.6 75.1 255.7
08/05 06:40 5.5 86 6.04 3.3 7 9 1023.6 0 14.5 24.4 33.7 87.9 74.2 252.5
08/05 06:30 5.5 88 6.18 3.7 6 9 1023.6 0 14.8 24.7 34.3 89.5 76.1 259.2
08/05 06:20 5.6 85 6.01 3.3 7 9 1023.5 0 14.4 24.4 33.5 87.5 73.7 250.8
08/05 06:10 5.8 83 5.95 3.1 9 11 1023.3 0 14.2 24.2 33.2 86.6 72.7 247.3
08/05 06:00 6.1 83 6.07 3.4 9 13 1023.4 0 14.5 24.3 33.6 87.6 74.0 252.0
08/05 05:50 6.1 81 5.92 3.1 9 11 1023.4 0 14.2 24.1 33.0 86.0 72.0 244.9
08/05 05:40 6.1 81 5.92 3.1 9 9 1023.4 0 14.2 24.1 33.0 86.0 72.0 244.9
08/05 05:30 6 82 5.96 3.2 9 13 1023.3 0 14.3 24.2 33.2 86.5 72.7 247.1
08/05 05:20 6 81 5.88 3 9 11 1023.3 0 14.1 24.0 32.8 85.6 71.6 243.4
08/05 05:10 5.8 83 5.95 3.1 11 11 1023.3 0 14.2 24.2 33.2 86.6 72.7 247.3
08/05 05:00 5.6 84 5.94 3.1 9 15 1023.3 0 14.2 24.2 33.2 86.7 72.8 247.4
08/05 04:50 6 82 5.96 3.2 9 11 1023.4 0 14.3 24.2 33.2 86.5 72.7 247.1
08/05 04:40 6.2 80 5.89 3 9 9 1023.5 0 14.1 24.0 32.8 85.5 71.6 243.3
08/05 04:30 6.2 82 6.03 3.4 9 15 1023.5 0 14.4 24.2 33.4 87.0 73.4 249.8
08/05 04:20 6.3 83 6.15 3.6 7 9 1023.3 0 14.7 24.4 33.8 88.2 74.9 255.1
08/05 04:10 6.2 82 6.03 3.4 9 11 1023.3 0 14.4 24.2 33.4 87.0 73.4 249.8
08/05 04:00 6.1 84 6.14 3.6 9 15 1023.1 0 14.6 24.4 33.8 88.3 75.0 255.2
08/05 03:50 6.1 82 5.99 3.3 7 9 1023 0 14.3 24.2 33.2 86.7 72.9 248.1
08/05 03:40 6.3 82 6.07 3.5 15 15 1022.9 0 14.5 24.3 33.5 87.3 73.8 251.2
08/05 03:30 6.3 80 5.93 3.1 9 13 1023 0 14.2 24.0 32.9 85.8 72.0 244.7
08/05 03:20 6.3 80 5.93 3.1 11 13 1023 0 14.2 24.0 32.9 85.8 72.0 244.7
08/05 03:10 6.1 83 6.07 3.4 9 11 1023.1 0 14.5 24.3 33.6 87.6 74.0 251.9
08/05 03:00 6 84 6.1 3.5 6 9 1023.3 0 14.6 24.4 33.7 88.0 74.5 253.7
08/05 02:50 5.7 85 6.05 3.4 0 0 1023.2 0 14.5 24.4 33.7 87.8 74.1 252.3
08/05 02:40 5.7 87 6.2 3.7 6 7 1023.2 0 14.8 24.6 34.3 89.4 76.2 259.4
08/05 02:30 5.5 85 5.97 3.2 6 7 1023.4 0 14.3 24.3 33.4 87.2 73.3 249.2
08/05 02:20 5.5 85 5.97 3.2 6 6 1023.5 0 14.3 24.3 33.4 87.2 73.3 249.2
08/05 02:10 5.3 84 5.83 2.8 6 6 1023.6 0 14.0 24.2 32.9 85.9 71.6 243.2
08/05 02:00 4.7 83 5.53 2.1 0 6 1023.7 0 13.4 23.8 32.0 83.3 68.1 231.0
08/05 01:50 5.1 80 5.48 1.9 0 0 1023.6 0 13.3 23.6 31.6 82.3 67.1 227.5
08/05 01:40 5.3 79 5.48 2 2 6 1023.6 0 13.3 23.6 31.5 82.1 66.9 226.9
08/05 01:30 5.4 79 5.52 2.1 6 7 1023.7 0 13.3 23.6 31.7 82.4 67.4 228.5
08/05 01:20 5.3 80 5.55 2.1 7 9 1023.7 0 13.4 23.7 31.8 82.9 67.9 230.2
08/05 01:10 5.3 80 5.55 2.1 11 11 1023.8 0 13.4 23.7 31.8 82.9 67.9 230.2
08/05 01:00 5.3 78 5.41 1.8 7 9 1023.8 0 13.1 23.5 31.3 81.4 66.0 223.7
08/05 00:50 5.3 78 5.41 1.8 7 7 1023.8 0 13.1 23.5 31.3 81.4 66.0 223.7
08/05 00:40 5.2 78 5.37 1.7 7 9 1023.9 0 13.0 23.4 31.1 81.1 65.6 222.2
08/05 00:20 5.1 81 5.54 2.1 7 9 1024.1 0 13.4 23.8 31.9 83.0 67.9 230.4
08/05 00:10 4.8 80 5.37 1.6 7 7 1024.1 0 13.0 23.6 31.3 81.5 65.9 223.3
08/05 00:00 4.8 80 5.37 1.7 11 13 1024.1 0 13.0 23.6 31.3 81.5 65.9 223.3
07/05 23:50 4.9 79 5.34 1.6 11 13 1024.1 0 13.0 23.5 31.1 81.1 65.5 221.7
07/05 23:40 5.4 76 5.31 1.5 9 11 1024.1 0 12.9 23.3 30.8 80.2 64.6 218.9
07/05 23:30 5.9 76 5.48 2 11 15 1024.1 0 13.2 23.5 31.3 81.5 66.5 225.3
07/05 23:20 5.6 78 5.52 2.1 13 13 1024.1 0 13.3 23.6 31.6 82.3 67.2 228.0
07/05 23:10 4.9 78 5.27 1.4 9 11 1024 0 12.8 23.4 30.9 80.3 64.5 218.4
07/05 23:00 5.1 79 5.41 1.8 9 13 1024 0 13.1 23.5 31.3 81.6 66.2 224.3
07/05 22:50 5.2 78 5.37 1.7 6 7 1024.1 0 13.0 23.5 31.1 81.1 65.6 222.2
07/05 22:40 5.6 78 5.52 2.1 11 11 1024.1 0 13.3 23.6 31.6 82.3 67.2 228.0
07/05 22:30 6.4 75 5.59 2.3 17 24 1024 0 13.5 23.5 31.6 82.2 67.5 228.9
07/05 22:20 5 78 5.3 1.5 11 15 1024 0 12.9 23.4 30.9 80.5 64.8 219.5
07/05 22:10 5 79 5.37 1.7 0 0 1024.1 0 13.0 23.5 31.2 81.3 65.8 222.8
07/05 22:00 5 77 5.24 1.3 4 7 1024.1 0 12.8 23.3 30.7 79.9 64.1 216.8
07/05 21:50 5.4 76 5.31 1.5 4 6 1024.1 0 12.9 23.3 30.8 80.2 64.6 218.9
07/05 21:40 5.9 74 5.34 1.6 4 6 1024.1 0 12.9 23.2 30.8 80.1 64.6 218.9
07/05 21:30 5.1 77 5.27 1.4 4 7 1024 0 12.8 23.3 30.8 80.1 64.4 217.8
07/05 21:20 4.7 81 5.4 1.7 2 4 1023.9 0 13.1 23.6 31.5 81.9 66.4 225.0
07/05 21:10 4.9 80 5.4 1.7 0 0 1023.9 0 13.1 23.6 31.4 81.7 66.2 224.4
07/05 21:00 4.8 80 5.37 1.7 0 0 1024 0 13.0 23.6 31.3 81.5 65.9 223.3
07/05 20:50 4.9 79 5.34 1.6 0 0 1023.8 0 13.0 23.5 31.1 81.0 65.4 221.6
07/05 20:40 4.9 80 5.4 1.7 6 6 1023.8 0 13.1 23.6 31.4 81.7 66.2 224.4
07/05 20:30 4.7 79 5.27 1.4 7 11 1023.7 0 12.8 23.4 30.9 80.5 64.7 218.9
07/05 20:20 4.9 79 5.34 1.6 9 9 1023.7 0 13.0 23.5 31.1 81.0 65.4 221.6
07/05 20:10 5.6 77 5.45 1.9 15 17 1023.7 0 13.2 23.5 31.3 81.5 66.3 224.7
07/05 20:00 5.3 79 5.48 2 15 19 1023.6 0 13.3 23.6 31.5 82.1 66.9 226.9
07/05 19:50 4.9 79 5.34 1.6 15 15 1023.6 0 13.0 23.5 31.1 81.0 65.4 221.6

Last Refresh: 08-May-2026 12:10:13

Bureau of Meteorology